createdAt,value
2017-12-26T00:01:09.266Z,6.67
2017-12-26T00:03:36.025Z,7.67
2017-12-26T00:06:02.747Z,7.60
2017-12-26T00:08:30.119Z,7.63
2017-12-26T00:10:59.097Z,7.30
2017-12-26T00:13:25.904Z,8.00
2017-12-26T00:15:54.012Z,6.47
2017-12-26T00:18:20.859Z,6.20
2017-12-26T00:20:47.598Z,7.07
2017-12-26T00:23:15.594Z,6.67
2017-12-26T00:25:42.746Z,6.40
2017-12-26T00:28:09.766Z,6.60
2017-12-26T00:30:36.498Z,6.40
2017-12-26T00:33:03.312Z,6.63
2017-12-26T00:35:30.128Z,6.93
2017-12-26T00:37:56.983Z,6.50
2017-12-26T00:40:26.419Z,6.50
2017-12-26T00:42:53.174Z,6.50
2017-12-26T00:45:25.970Z,6.40
2017-12-26T00:47:54.085Z,7.80
2017-12-26T00:50:21.000Z,6.83
2017-12-26T00:52:48.055Z,6.33
2017-12-26T00:55:15.111Z,6.27
2017-12-26T00:57:41.913Z,6.20
2017-12-26T01:00:08.756Z,6.37
2017-12-26T01:02:37.001Z,6.23
2017-12-26T01:05:13.099Z,6.37
2017-12-26T01:07:40.007Z,6.77
2017-12-26T01:10:06.945Z,5.67
2017-12-26T01:12:33.802Z,6.00
2017-12-26T01:15:00.754Z,6.30
2017-12-26T01:17:27.718Z,6.47
2017-12-26T01:19:54.564Z,6.80
2017-12-26T01:22:21.258Z,7.20
2017-12-26T01:27:21.412Z,7.10
2017-12-26T01:29:48.723Z,6.57
2017-12-26T01:32:15.410Z,6.83
2017-12-26T01:34:42.597Z,7.60
2017-12-26T01:37:09.591Z,7.97
2017-12-26T01:39:36.466Z,7.70
2017-12-26T01:42:03.503Z,8.60
2017-12-26T01:44:30.165Z,7.67
2017-12-26T01:46:56.809Z,7.07
2017-12-26T01:49:23.476Z,7.60
2017-12-26T01:51:50.121Z,7.17
2017-12-26T01:54:16.812Z,8.10
2017-12-26T01:56:43.464Z,8.10
2017-12-26T01:59:10.205Z,7.97
2017-12-26T02:01:37.003Z,7.83
2017-12-26T02:04:03.891Z,9.07
2017-12-26T02:06:30.693Z,7.90
2017-12-26T02:08:57.439Z,8.33
2017-12-26T02:11:24.320Z,9.30
2017-12-26T02:13:51.019Z,9.00
2017-12-26T02:16:17.904Z,9.30
2017-12-26T02:18:44.748Z,9.52
2017-12-26T02:21:11.665Z,10.27
2017-12-26T02:23:38.401Z,9.50
2017-12-26T02:26:05.275Z,9.47
2017-12-26T02:28:32.111Z,8.70
2017-12-26T02:30:58.846Z,9.77
2017-12-26T02:33:25.623Z,9.33
2017-12-26T02:35:52.337Z,10.13
2017-12-26T02:38:19.173Z,10.63
2017-12-26T02:40:45.982Z,9.13
2017-12-26T02:43:13.003Z,9.87
2017-12-26T02:45:39.718Z,9.97
2017-12-26T02:48:06.434Z,10.30
2017-12-26T02:50:33.293Z,9.13
2017-12-26T02:53:00.083Z,10.40
2017-12-26T02:55:26.799Z,10.30
2017-12-26T02:57:53.696Z,11.60
2017-12-26T03:00:20.483Z,11.10
2017-12-26T03:02:47.284Z,9.67
2017-12-26T03:05:14.301Z,9.57
2017-12-26T03:07:41.056Z,9.90
2017-12-26T03:10:07.771Z,9.03
2017-12-26T03:12:34.534Z,9.63
2017-12-26T03:15:01.303Z,10.00
2017-12-26T03:17:28.231Z,10.27
2017-12-26T03:19:54.971Z,9.53
2017-12-26T03:22:21.721Z,9.80
2017-12-26T03:24:49.722Z,9.27
2017-12-26T03:27:16.797Z,9.63
2017-12-26T03:29:45.149Z,10.50
2017-12-26T03:32:12.143Z,8.83
2017-12-26T03:34:39.222Z,9.80
2017-12-26T03:37:05.956Z,10.17
2017-12-26T03:39:32.694Z,8.87
2017-12-26T03:42:00.185Z,9.43
2017-12-26T03:44:27.899Z,9.00
2017-12-26T03:46:54.653Z,9.13
2017-12-26T03:49:21.394Z,10.30
2017-12-26T03:51:48.137Z,9.00
2017-12-26T03:54:15.404Z,9.00
2017-12-26T03:56:42.499Z,9.77
2017-12-26T03:59:09.255Z,9.10
2017-12-26T04:01:36.090Z,9.30
2017-12-26T04:04:03.104Z,9.37
2017-12-26T04:06:40.923Z,8.17
2017-12-26T04:09:07.774Z,8.50
2017-12-26T04:11:34.512Z,8.70
2017-12-26T04:14:01.824Z,8.50
2017-12-26T04:16:28.841Z,8.77
2017-12-26T04:18:55.734Z,8.37
2017-12-26T04:21:22.562Z,8.57
2017-12-26T04:23:49.525Z,8.07
2017-12-26T04:26:16.371Z,8.87
2017-12-26T04:28:43.175Z,8.80
2017-12-26T04:31:10.159Z,8.43
2017-12-26T04:33:37.312Z,9.30
2017-12-26T04:36:04.300Z,8.60
2017-12-26T04:38:31.203Z,8.10
2017-12-26T04:40:58.151Z,8.50
2017-12-26T04:43:24.986Z,7.60
2017-12-26T04:45:51.936Z,8.13
2017-12-26T04:48:18.835Z,7.17
2017-12-26T04:50:45.546Z,8.60
2017-12-26T04:53:12.546Z,7.50
2017-12-26T04:55:39.462Z,7.00
2017-12-26T04:58:06.237Z,8.40
2017-12-26T05:00:33.052Z,7.10
2017-12-26T05:02:59.926Z,7.63
2017-12-26T05:05:26.781Z,7.20
2017-12-26T05:07:53.617Z,7.10
2017-12-26T05:10:20.511Z,5.70
2017-12-26T05:12:47.226Z,6.20
2017-12-26T05:15:14.302Z,6.33
2017-12-26T05:17:41.176Z,5.20
2017-12-26T05:20:08.011Z,5.17
2017-12-26T05:22:45.944Z,5.30
2017-12-26T05:25:12.822Z,4.30
2017-12-26T05:27:39.596Z,5.20
2017-12-26T05:30:08.443Z,4.93
2017-12-26T05:32:35.295Z,5.27
2017-12-26T05:35:02.155Z,5.17
2017-12-26T05:37:29.503Z,5.20
2017-12-26T05:40:03.193Z,5.30
2017-12-26T05:42:30.038Z,5.00
2017-12-26T05:44:57.160Z,5.60
2017-12-26T05:47:24.522Z,5.30
2017-12-26T05:49:52.111Z,5.70
2017-12-26T05:52:18.926Z,5.33
2017-12-26T05:54:45.721Z,5.43
2017-12-26T05:57:12.437Z,6.33
2017-12-26T05:59:39.411Z,6.77
2017-12-26T06:02:06.259Z,5.13
2017-12-26T06:04:33.082Z,5.30
2017-12-26T06:07:00.837Z,5.00
2017-12-26T06:09:27.546Z,4.80
2017-12-26T06:11:56.964Z,4.30
2017-12-26T06:14:34.596Z,4.17
2017-12-26T06:17:01.799Z,3.90
2017-12-26T06:19:28.445Z,3.60
2017-12-26T06:21:55.328Z,3.50
2017-12-26T06:24:25.483Z,3.80
2017-12-26T06:26:52.312Z,4.20
2017-12-26T06:29:19.395Z,3.60
2017-12-26T06:32:00.280Z,3.33
2017-12-26T06:34:27.084Z,3.83
2017-12-26T06:36:54.398Z,4.20
2017-12-26T06:39:21.334Z,3.80
2017-12-26T06:41:50.158Z,3.40
2017-12-26T06:44:17.726Z,3.40
2017-12-26T06:46:44.541Z,3.43
2017-12-26T06:49:11.447Z,3.57
2017-12-26T06:51:38.472Z,3.40
2017-12-26T06:54:05.447Z,3.20
2017-12-26T06:56:32.173Z,3.13
2017-12-26T06:58:58.997Z,3.27
2017-12-26T07:01:26.579Z,4.00
2017-12-26T07:03:53.308Z,2.90
2017-12-26T07:06:21.324Z,3.20
2017-12-26T07:08:48.555Z,3.33
2017-12-26T07:11:15.534Z,3.70
2017-12-26T07:13:44.210Z,3.43
2017-12-26T07:16:11.741Z,3.40
2017-12-26T07:18:38.557Z,2.70
2017-12-26T07:21:21.839Z,3.70
2017-12-26T07:23:59.370Z,3.40
2017-12-26T07:26:27.624Z,3.50
2017-12-26T07:28:54.345Z,4.30
2017-12-26T07:31:21.276Z,3.63
2017-12-26T07:33:53.025Z,3.83
2017-12-26T07:36:33.045Z,3.90
2017-12-26T07:39:00.025Z,3.70
2017-12-26T07:41:26.854Z,3.90
2017-12-26T07:44:04.392Z,3.43
2017-12-26T07:46:31.584Z,3.13
2017-12-26T07:48:58.398Z,3.20
2017-12-26T07:51:25.156Z,3.20
2017-12-26T07:53:52.098Z,3.67
2017-12-26T07:56:18.864Z,3.70
2017-12-26T07:58:46.598Z,3.17
2017-12-26T08:01:13.578Z,3.30
2017-12-26T08:03:40.484Z,3.37
2017-12-26T08:06:07.261Z,2.90
2017-12-26T08:08:34.191Z,3.17
2017-12-26T08:11:01.031Z,2.90
2017-12-26T08:13:27.915Z,3.23
2017-12-26T08:15:54.636Z,3.43
2017-12-26T08:18:21.431Z,3.17
2017-12-26T08:20:48.175Z,3.20
2017-12-26T08:23:15.068Z,2.60
2017-12-26T08:25:41.861Z,3.13
2017-12-26T08:28:08.565Z,4.20
2017-12-26T08:30:35.337Z,2.90
2017-12-26T08:33:02.179Z,2.77
2017-12-26T08:35:28.932Z,3.30
2017-12-26T08:37:55.735Z,2.70
2017-12-26T08:40:22.524Z,2.83
2017-12-26T08:42:49.329Z,2.63
2017-12-26T08:45:16.193Z,3.40
2017-12-26T08:47:43.063Z,2.93
2017-12-26T08:50:09.826Z,3.13
2017-12-26T08:52:36.529Z,3.20
2017-12-26T08:55:03.257Z,2.53
2017-12-26T08:57:30.210Z,2.33
2017-12-26T08:59:57.021Z,3.57
2017-12-26T09:02:23.832Z,3.37
2017-12-26T09:04:50.487Z,2.60
2017-12-26T09:07:17.158Z,2.73
2017-12-26T09:09:44.554Z,2.47
2017-12-26T09:12:11.300Z,2.60
2017-12-26T09:14:41.388Z,2.40
2017-12-26T09:17:08.884Z,2.27
2017-12-26T09:19:36.948Z,2.00
2017-12-26T09:22:05.400Z,2.17
2017-12-26T09:24:32.763Z,2.20
2017-12-26T09:26:59.653Z,1.40
2017-12-26T09:29:30.608Z,1.90
2017-12-26T09:31:58.291Z,1.83
2017-12-26T09:34:24.980Z,2.10
2017-12-26T09:36:54.387Z,1.60
2017-12-26T09:39:21.305Z,2.10
2017-12-26T09:41:49.726Z,1.70
2017-12-26T09:44:16.765Z,2.07
2017-12-26T09:46:43.721Z,1.80
2017-12-26T09:49:10.821Z,1.87
2017-12-26T09:51:37.748Z,2.17
2017-12-26T09:54:04.453Z,1.87
2017-12-26T09:56:31.306Z,1.67
2017-12-26T09:58:58.467Z,1.90
2017-12-26T10:01:25.607Z,1.83
2017-12-26T10:03:52.443Z,2.33
2017-12-26T10:06:19.280Z,2.00
2017-12-26T10:08:46.240Z,2.03
2017-12-26T10:11:23.780Z,1.80
2017-12-26T10:13:50.660Z,2.17
2017-12-26T10:16:28.879Z,1.70
2017-12-26T10:18:57.883Z,1.70
2017-12-26T10:21:24.970Z,1.83
2017-12-26T10:23:52.178Z,2.10
2017-12-26T10:26:19.145Z,1.80
2017-12-26T10:28:45.907Z,1.40
2017-12-26T10:31:12.688Z,2.30
2017-12-26T10:33:39.716Z,1.60
2017-12-26T10:36:06.702Z,2.23
2017-12-26T10:38:33.656Z,2.00
2017-12-26T10:41:00.615Z,1.80
2017-12-26T10:43:27.318Z,2.10
2017-12-26T10:45:54.287Z,2.07
2017-12-26T10:48:21.194Z,2.27
2017-12-26T10:50:49.137Z,2.00
2017-12-26T10:53:15.988Z,1.83
2017-12-26T10:55:43.180Z,2.00
2017-12-26T10:58:20.882Z,3.10
2017-12-26T11:00:47.715Z,2.03
2017-12-26T11:03:14.582Z,2.23
2017-12-26T11:05:41.321Z,2.40
2017-12-26T11:08:08.125Z,2.73
2017-12-26T11:10:35.105Z,2.47
2017-12-26T11:13:01.805Z,2.20
2017-12-26T11:15:28.662Z,2.03
2017-12-26T11:17:55.406Z,3.50
2017-12-26T11:20:22.417Z,2.33
2017-12-26T11:22:49.191Z,2.43
2017-12-26T11:25:15.995Z,2.37
2017-12-26T11:27:42.850Z,2.33
2017-12-26T11:30:09.782Z,2.63
2017-12-26T11:32:36.665Z,2.37
2017-12-26T11:35:03.486Z,2.27
2017-12-26T11:37:30.277Z,2.70
2017-12-26T11:39:57.126Z,2.37
2017-12-26T11:42:23.982Z,2.20
2017-12-26T11:44:50.998Z,2.07
2017-12-26T11:47:17.759Z,2.23
2017-12-26T11:49:44.525Z,2.10
2017-12-26T11:52:11.378Z,2.30
2017-12-26T11:54:38.248Z,2.07
2017-12-26T11:57:05.117Z,2.37
2017-12-26T11:59:32.010Z,2.43
2017-12-26T12:01:58.920Z,2.50
2017-12-26T12:04:27.610Z,2.80
2017-12-26T12:06:54.879Z,2.40
2017-12-26T12:09:21.757Z,2.30
2017-12-26T12:11:48.605Z,2.57
2017-12-26T12:14:15.802Z,2.50
2017-12-26T12:16:43.000Z,2.40
2017-12-26T12:19:09.667Z,2.40
2017-12-26T12:21:36.485Z,2.40
2017-12-26T12:24:03.564Z,2.50
2017-12-26T12:26:30.516Z,2.20
2017-12-26T12:28:57.345Z,2.30
2017-12-26T12:31:24.237Z,2.33
2017-12-26T12:33:51.003Z,2.20
2017-12-26T12:36:18.284Z,1.97
2017-12-26T12:38:46.249Z,1.97
2017-12-26T12:41:13.111Z,2.20
2017-12-26T12:43:39.950Z,2.33
2017-12-26T12:46:06.690Z,1.97
2017-12-26T12:48:34.590Z,2.40
2017-12-26T12:51:01.471Z,2.43
2017-12-26T12:53:28.630Z,1.60
2017-12-26T12:55:55.690Z,2.70
2017-12-26T12:58:32.469Z,1.97
2017-12-26T13:00:59.365Z,2.17
2017-12-26T13:03:26.280Z,2.40
2017-12-26T13:05:53.335Z,2.40
2017-12-26T13:08:20.357Z,2.27
2017-12-26T13:10:47.253Z,2.40
2017-12-26T13:13:14.131Z,1.93
2017-12-26T13:15:41.069Z,2.20
2017-12-26T13:18:09.012Z,2.33
2017-12-26T13:20:36.127Z,2.20
2017-12-26T13:23:03.004Z,2.20
2017-12-26T13:25:29.835Z,2.27
2017-12-26T13:27:56.714Z,2.30
2017-12-26T13:30:23.694Z,2.10
2017-12-26T13:32:50.365Z,1.80
2017-12-26T13:35:17.049Z,1.90
2017-12-26T13:37:43.933Z,2.10
2017-12-26T13:40:10.913Z,2.20
2017-12-26T13:42:37.932Z,2.00
2017-12-26T13:45:05.602Z,2.20
2017-12-26T13:47:32.660Z,2.30
2017-12-26T13:49:59.572Z,2.60
2017-12-26T13:52:26.546Z,2.00
2017-12-26T13:54:53.828Z,3.20
2017-12-26T13:57:21.185Z,2.50
2017-12-26T13:59:48.055Z,2.20
2017-12-26T14:02:15.442Z,2.60
2017-12-26T14:04:42.290Z,2.37
2017-12-26T14:07:09.145Z,2.30
2017-12-26T14:09:36.001Z,2.87
2017-12-26T14:12:02.919Z,3.07
2017-12-26T14:14:29.756Z,2.03
2017-12-26T14:16:56.722Z,2.30
2017-12-26T14:19:23.619Z,2.37
2017-12-26T14:21:50.794Z,2.23
2017-12-26T14:24:17.635Z,2.37
2017-12-26T14:26:54.624Z,2.23
2017-12-26T14:29:21.673Z,2.23
2017-12-26T14:31:48.759Z,2.30
2017-12-26T14:34:15.546Z,2.77
2017-12-26T14:36:42.662Z,2.30
2017-12-26T14:39:09.719Z,2.87
2017-12-26T14:41:36.815Z,2.47
2017-12-26T14:44:03.957Z,2.30
2017-12-26T14:46:30.783Z,2.37
2017-12-26T14:48:58.142Z,3.17
2017-12-26T14:51:35.169Z,2.10
2017-12-26T14:54:02.121Z,2.30
2017-12-26T14:56:28.966Z,2.07
2017-12-26T14:58:56.046Z,2.30
2017-12-26T15:01:23.135Z,3.20
2017-12-26T15:03:50.274Z,2.67
2017-12-26T15:06:17.285Z,2.57
2017-12-26T15:08:44.188Z,2.20
2017-12-26T15:11:12.304Z,2.30
2017-12-26T15:13:39.129Z,2.63
2017-12-26T15:16:06.034Z,2.00
2017-12-26T15:18:32.897Z,2.87
2017-12-26T15:20:59.795Z,2.50
2017-12-26T15:23:26.634Z,3.20
2017-12-26T15:25:54.692Z,2.20
2017-12-26T15:28:21.478Z,2.70
2017-12-26T15:30:48.182Z,2.20
2017-12-26T15:33:15.059Z,1.80
2017-12-26T15:35:41.808Z,2.13
2017-12-26T15:38:08.554Z,2.50
2017-12-26T15:40:35.322Z,1.60
2017-12-26T15:43:02.358Z,2.27
2017-12-26T15:45:33.368Z,1.80
2017-12-26T15:48:08.514Z,1.70
2017-12-26T15:50:38.654Z,1.97
2017-12-26T15:53:06.093Z,1.67
2017-12-26T15:55:33.079Z,2.17
2017-12-26T15:58:00.088Z,2.40
2017-12-26T16:00:27.201Z,2.00
2017-12-26T16:02:55.104Z,2.47
2017-12-26T16:05:21.936Z,3.57
2017-12-26T16:07:48.941Z,2.60
2017-12-26T16:10:17.171Z,2.97
2017-12-26T16:12:44.280Z,2.13
2017-12-26T16:15:11.266Z,2.27
2017-12-26T16:17:38.164Z,2.30
2017-12-26T16:20:05.119Z,2.17
2017-12-26T16:22:31.979Z,2.17
2017-12-26T16:24:58.980Z,2.80
2017-12-26T16:27:25.995Z,2.00
2017-12-26T16:29:53.374Z,1.70
2017-12-26T16:32:20.398Z,1.83
2017-12-26T16:34:47.377Z,2.23
2017-12-26T16:37:15.313Z,2.23
2017-12-26T16:39:42.583Z,1.87
2017-12-26T16:42:09.591Z,2.70
2017-12-26T16:44:36.536Z,3.00
2017-12-26T16:47:03.506Z,2.50
2017-12-26T16:49:33.838Z,3.33
2017-12-26T16:52:00.572Z,2.50
2017-12-26T16:54:27.378Z,3.07
2017-12-26T16:56:54.252Z,3.50
2017-12-26T16:59:21.769Z,3.80
2017-12-26T17:01:48.857Z,3.17
2017-12-26T17:04:16.616Z,3.60
2017-12-26T17:06:43.476Z,3.83
2017-12-26T17:09:10.506Z,2.90
2017-12-26T17:11:37.379Z,2.60
2017-12-26T17:14:04.153Z,2.80
2017-12-26T17:16:31.018Z,2.70
2017-12-26T17:18:57.927Z,2.60
2017-12-26T17:21:25.882Z,2.50
2017-12-26T17:23:52.778Z,3.17
2017-12-26T17:26:20.782Z,2.70
2017-12-26T17:28:48.240Z,2.30
2017-12-26T17:31:15.122Z,2.87
2017-12-26T17:33:41.837Z,2.60
2017-12-26T17:36:08.872Z,3.30
2017-12-26T17:38:36.008Z,1.80
2017-12-26T17:41:03.389Z,2.63
2017-12-26T17:43:30.212Z,2.23
2017-12-26T17:45:57.081Z,3.20
2017-12-26T17:48:23.806Z,3.40
2017-12-26T17:50:50.743Z,2.70
2017-12-26T17:53:18.317Z,2.83
2017-12-26T17:55:55.878Z,2.93
2017-12-26T17:58:22.688Z,1.90
2017-12-26T18:00:49.571Z,2.23
2017-12-26T18:03:16.228Z,1.80
2017-12-26T18:05:43.152Z,1.90
2017-12-26T18:08:09.909Z,2.63
2017-12-26T18:10:37.721Z,1.93
2017-12-26T18:13:17.433Z,2.60
2017-12-26T18:15:44.273Z,2.30
2017-12-26T18:18:11.562Z,2.50
2017-12-26T18:20:38.676Z,2.10
2017-12-26T18:23:05.376Z,2.13
2017-12-26T18:25:32.114Z,2.20
2017-12-26T18:27:59.085Z,2.87
2017-12-26T18:30:26.137Z,2.60
2017-12-26T18:32:52.995Z,2.30
2017-12-26T18:35:19.814Z,2.23
2017-12-26T18:37:46.549Z,2.70
2017-12-26T18:40:13.277Z,3.23
2017-12-26T18:42:40.070Z,3.13
2017-12-26T18:45:06.956Z,3.03
2017-12-26T18:47:33.670Z,2.97
2017-12-26T18:50:00.538Z,2.20
2017-12-26T18:52:27.539Z,3.20
2017-12-26T18:54:54.482Z,2.77
2017-12-26T18:57:22.349Z,3.43
2017-12-26T18:59:49.183Z,2.63
2017-12-26T19:02:15.894Z,2.20
2017-12-26T19:04:42.695Z,3.33
2017-12-26T19:07:09.491Z,2.57
2017-12-26T19:09:36.757Z,3.07
2017-12-26T19:12:03.662Z,9.80
2017-12-26T19:14:30.435Z,8.20
2017-12-26T19:16:57.323Z,9.17
2017-12-26T19:19:24.025Z,39.00
2017-12-26T19:21:50.784Z,35.77
2017-12-26T19:24:17.555Z,4.70
2017-12-26T19:26:44.330Z,7.30
2017-12-26T19:29:11.109Z,5.30
2017-12-26T19:31:37.989Z,4.77
2017-12-26T19:34:04.975Z,4.83
2017-12-26T19:36:31.810Z,7.23
2017-12-26T19:38:58.565Z,5.30
2017-12-26T19:41:25.420Z,11.30
2017-12-26T19:43:52.495Z,11.33
2017-12-26T19:46:19.391Z,35.00
2017-12-26T19:48:46.185Z,4.80
2017-12-26T19:51:13.081Z,4.97
2017-12-26T19:53:40.049Z,4.60
2017-12-26T19:56:06.810Z,4.40
2017-12-26T19:58:33.586Z,4.20
2017-12-26T20:01:00.376Z,4.23
2017-12-26T20:03:27.216Z,4.87
2017-12-26T20:05:53.963Z,4.70
2017-12-26T20:08:20.952Z,4.33
2017-12-26T20:10:47.770Z,3.67
2017-12-26T20:13:14.674Z,5.33
2017-12-26T20:15:41.430Z,3.67
2017-12-26T20:18:08.171Z,3.67
2017-12-26T20:20:34.876Z,3.80
2017-12-26T20:23:01.600Z,4.17
2017-12-26T20:25:28.300Z,4.10
2017-12-26T20:27:55.087Z,3.93
2017-12-26T20:30:21.862Z,3.20
2017-12-26T20:32:48.797Z,3.50
2017-12-26T20:35:15.652Z,3.13
2017-12-26T20:37:42.345Z,4.00
2017-12-26T20:40:09.104Z,3.77
2017-12-26T20:42:35.898Z,3.37
2017-12-26T20:45:02.636Z,3.63
2017-12-26T20:47:29.306Z,3.67
2017-12-26T20:49:56.157Z,3.37
2017-12-26T20:52:22.859Z,4.57
2017-12-26T20:54:49.655Z,4.60
2017-12-26T20:57:17.681Z,3.17
2017-12-26T20:59:44.436Z,3.50
2017-12-26T21:02:11.259Z,3.10
2017-12-26T21:04:37.998Z,3.93
2017-12-26T21:07:04.789Z,3.30
2017-12-26T21:09:31.538Z,2.83
2017-12-26T21:11:58.224Z,2.77
2017-12-26T21:14:25.290Z,3.90
2017-12-26T21:16:52.377Z,3.30
2017-12-26T21:19:19.146Z,3.43
2017-12-26T21:21:45.876Z,2.57
2017-12-26T21:24:12.716Z,2.80
2017-12-26T21:26:39.445Z,2.80
2017-12-26T21:29:06.223Z,3.37
2017-12-26T21:31:33.182Z,3.00
2017-12-26T21:34:00.819Z,2.93
2017-12-26T21:36:31.373Z,2.63
2017-12-26T21:38:59.809Z,3.07
2017-12-26T21:41:26.689Z,3.53
2017-12-26T21:43:53.536Z,3.80
2017-12-26T21:46:20.362Z,2.90
2017-12-26T21:48:47.270Z,3.77
2017-12-26T21:51:14.065Z,3.43
2017-12-26T21:53:40.803Z,3.80
2017-12-26T21:56:12.351Z,3.90
2017-12-26T21:58:40.278Z,3.10
2017-12-26T22:01:07.126Z,3.23
2017-12-26T22:03:33.981Z,3.07
2017-12-26T22:06:00.737Z,3.67
2017-12-26T22:08:27.570Z,3.67
2017-12-26T22:11:00.507Z,4.10
2017-12-26T22:13:27.304Z,4.43
2017-12-26T22:15:54.359Z,3.50
2017-12-26T22:18:21.320Z,3.70
2017-12-26T22:20:49.186Z,3.80
2017-12-26T22:23:16.104Z,3.00
2017-12-26T22:25:42.786Z,3.30
2017-12-26T22:28:09.970Z,3.70
2017-12-26T22:30:36.869Z,2.90
2017-12-26T22:33:03.711Z,3.13
2017-12-26T22:35:30.420Z,2.90
2017-12-26T22:37:57.170Z,3.70
2017-12-26T22:40:23.971Z,2.90
2017-12-26T22:42:50.800Z,4.17
2017-12-26T22:45:17.527Z,3.23
2017-12-26T22:47:44.463Z,3.60
2017-12-26T22:50:11.266Z,2.83
2017-12-26T22:52:38.148Z,2.90
2017-12-26T22:55:05.023Z,3.03
2017-12-26T22:57:31.735Z,2.90
2017-12-26T22:59:58.809Z,3.03
2017-12-26T23:02:25.513Z,2.60
2017-12-26T23:04:53.113Z,3.33
2017-12-26T23:07:19.899Z,2.60
2017-12-26T23:09:47.123Z,2.50
2017-12-26T23:12:14.250Z,2.60
2017-12-26T23:14:46.845Z,2.53
2017-12-26T23:17:19.372Z,3.13
2017-12-26T23:19:51.735Z,2.73
2017-12-26T23:22:18.511Z,2.33
2017-12-26T23:24:51.140Z,2.30
2017-12-26T23:27:23.767Z,2.57
2017-12-26T23:29:56.276Z,2.87
2017-12-26T23:32:28.952Z,2.27
2017-12-26T23:35:01.485Z,2.67
2017-12-26T23:37:47.173Z,1.90
2017-12-26T23:40:19.736Z,2.58
2017-12-26T23:42:52.444Z,2.80
2017-12-26T23:45:25.136Z,3.80
2017-12-26T23:47:57.540Z,2.40
2017-12-26T23:50:30.165Z,2.17
2017-12-26T23:53:02.610Z,2.40
2017-12-26T23:55:35.305Z,3.10
2017-12-26T23:58:07.881Z,2.23
